Terminal Aerodrome Forecast
Issued by NWS

Home | Current Version | Previous Version | Text Only | Print | Product List | Glossary On
Versions: 1 2 3 4 5 6 7 8 9 10 11 12 13 14 15 16 17 18 19 20 21 22 23 24 25 26 27 28 29
000
FTUS45 KGJT 011130
TAFTEX
TAF
KTEX 011130Z 0112/0212 VRB04KT P6SM FEW050 BKN070
     FM011500 VRB03KT P6SM FEW070 SCT120
     FM011700 28005KT P6SM VCTS SCT050 BKN080CB
      TEMPO 0118/0122 VRB15G25KT -TSRA BKN050CB
     FM020100 VRB04KT P6SM VCSH SCT040 OVC070=

USA.gov is the U.S. government's official web portal to all federal, state and local government web resources and services.